createdAt,value
2018-08-30T00:01:10.841Z,19.27
2018-08-30T00:03:42.027Z,19.33
2018-08-30T00:06:12.832Z,19.34
2018-08-30T00:08:44.197Z,19.36
2018-08-30T00:11:14.951Z,19.36
2018-08-30T00:13:46.130Z,19.38
2018-08-30T00:16:17.411Z,19.41
2018-08-30T00:18:48.931Z,19.42
2018-08-30T00:21:18.927Z,19.39
2018-08-30T00:23:51.096Z,19.25
2018-08-30T00:26:20.974Z,19.30
2018-08-30T00:28:52.162Z,19.32
2018-08-30T00:31:22.068Z,19.31
2018-08-30T00:33:53.147Z,19.22
2018-08-30T00:36:23.905Z,19.05
2018-08-30T00:38:54.910Z,18.94
2018-08-30T00:41:25.884Z,18.97
2018-08-30T00:43:57.287Z,18.90
2018-08-30T00:46:27.950Z,18.76
2018-08-30T00:48:59.052Z,18.57
2018-08-30T00:51:29.836Z,18.62
2018-08-30T00:54:01.312Z,18.72
2018-08-30T00:56:31.976Z,18.67
2018-08-30T00:59:03.131Z,18.57
2018-08-30T01:01:33.857Z,18.45
2018-08-30T01:04:05.075Z,18.30
2018-08-30T01:06:35.793Z,18.30
2018-08-30T01:09:08.246Z,18.26
2018-08-30T01:11:38.319Z,18.18
2018-08-30T01:14:08.976Z,18.03
2018-08-30T01:16:39.930Z,18.08
2018-08-30T01:19:10.969Z,18.03
2018-08-30T01:21:42.576Z,17.96
2018-08-30T01:24:12.688Z,17.99
2018-08-30T01:26:44.340Z,18.07
2018-08-30T01:29:15.077Z,18.10
2018-08-30T01:31:45.123Z,17.96
2018-08-30T01:34:16.151Z,18.04
2018-08-30T01:36:46.871Z,18.20
2018-08-30T01:39:18.114Z,18.26
2018-08-30T01:41:48.890Z,18.46
2018-08-30T01:44:20.225Z,18.49
2018-08-30T01:46:51.229Z,18.51
2018-08-30T01:49:22.110Z,18.10
2018-08-30T01:51:52.874Z,18.51
2018-08-30T01:54:24.065Z,18.55
2018-08-30T01:56:54.924Z,18.59
2018-08-30T01:59:26.096Z,18.52
2018-08-30T02:01:56.853Z,18.74
2018-08-30T02:04:28.067Z,18.76
2018-08-30T02:06:58.091Z,18.77
2018-08-30T02:09:29.208Z,18.81
2018-08-30T02:12:00.300Z,18.84
2018-08-30T02:14:31.230Z,18.85
2018-08-30T02:17:02.141Z,18.86
2018-08-30T02:19:33.677Z,18.86
2018-08-30T02:22:03.656Z,18.88
2018-08-30T02:24:35.465Z,18.80
2018-08-30T02:27:06.029Z,18.88
2018-08-30T02:29:37.236Z,18.79
2018-08-30T02:32:07.408Z,18.87
2018-08-30T02:34:38.673Z,18.87
2018-08-30T02:37:08.609Z,18.87
2018-08-30T02:39:39.910Z,18.85
2018-08-30T02:42:10.865Z,18.75
2018-08-30T02:44:42.166Z,18.84
2018-08-30T02:47:12.868Z,18.83
2018-08-30T02:49:44.097Z,18.83
2018-08-30T02:52:14.905Z,18.81
2018-08-30T02:54:46.089Z,18.80
2018-08-30T02:57:16.789Z,18.79
2018-08-30T02:59:48.041Z,18.78
2018-08-30T03:02:18.846Z,18.77
2018-08-30T03:04:50.088Z,18.76
2018-08-30T03:07:20.815Z,18.74
2018-08-30T03:09:52.124Z,18.57
2018-08-30T03:12:22.970Z,18.71
2018-08-30T03:15:04.608Z,18.51
2018-08-30T03:17:34.887Z,18.67
2018-08-30T03:20:06.625Z,18.66
2018-08-30T03:22:37.389Z,18.65
2018-08-30T03:25:07.895Z,18.64
2018-08-30T03:27:37.789Z,18.61
2018-08-30T03:30:09.215Z,18.59
2018-08-30T03:32:39.257Z,18.57
2018-08-30T03:35:09.855Z,18.55
2018-08-30T03:37:39.658Z,18.54
2018-08-30T03:40:09.651Z,18.36
2018-08-30T03:42:39.604Z,18.47
2018-08-30T03:45:09.490Z,18.49
2018-08-30T03:47:39.718Z,18.49
2018-08-30T03:50:09.657Z,18.49
2018-08-30T03:52:39.629Z,18.48
2018-08-30T03:55:09.680Z,18.45
2018-08-30T03:57:40.670Z,18.45
2018-08-30T04:00:12.479Z,18.43
2018-08-30T04:02:43.357Z,18.41
2018-08-30T04:05:14.084Z,18.39
2018-08-30T04:07:45.166Z,18.39
2018-08-30T04:10:16.040Z,18.39
2018-08-30T04:12:46.869Z,18.38
2018-08-30T04:15:18.326Z,18.36
2018-08-30T04:17:48.957Z,18.35
2018-08-30T04:20:20.667Z,18.34
2018-08-30T04:22:50.896Z,18.34
2018-08-30T04:25:22.034Z,18.33
2018-08-30T04:27:52.953Z,18.26
2018-08-30T04:30:25.045Z,18.32
2018-08-30T04:32:54.888Z,18.28
2018-08-30T04:35:26.050Z,18.03
2018-08-30T04:37:56.969Z,17.75
2018-08-30T04:40:28.053Z,16.18
2018-08-30T04:42:58.758Z,17.21
2018-08-30T04:45:30.025Z,17.00
2018-08-30T04:48:00.893Z,16.95
2018-08-30T04:50:32.044Z,16.84
2018-08-30T04:53:02.752Z,16.54
2018-08-30T04:55:33.817Z,16.47
2018-08-30T04:58:04.749Z,16.43
2018-08-30T05:00:35.768Z,16.33
2018-08-30T05:03:06.589Z,16.21
2018-08-30T05:05:37.766Z,16.02
2018-08-30T05:08:09.581Z,16.06
2018-08-30T05:10:39.672Z,16.03
2018-08-30T05:13:10.500Z,16.02
2018-08-30T05:15:42.085Z,16.02
2018-08-30T05:18:12.763Z,16.00
2018-08-30T05:20:43.851Z,15.94
2018-08-30T05:23:15.027Z,16.03
2018-08-30T05:25:46.050Z,16.07
2018-08-30T05:28:16.730Z,16.04
2018-08-30T05:30:47.857Z,16.05
2018-08-30T05:33:18.610Z,16.13
2018-08-30T05:35:50.197Z,16.13
2018-08-30T05:38:20.977Z,16.13
2018-08-30T05:40:51.984Z,16.17
2018-08-30T05:43:22.768Z,16.23
2018-08-30T05:45:53.885Z,16.32
2018-08-30T05:48:25.014Z,16.48
2018-08-30T05:50:56.177Z,16.65
2018-08-30T05:53:26.725Z,16.54
2018-08-30T05:55:57.802Z,16.74
2018-08-30T05:58:28.892Z,16.80
2018-08-30T06:01:00.320Z,16.93
2018-08-30T06:03:30.784Z,16.99
2018-08-30T06:06:02.087Z,17.14
2018-08-30T06:08:32.821Z,17.18
2018-08-30T06:11:03.776Z,17.38
2018-08-30T06:13:34.548Z,17.48
2018-08-30T06:16:06.117Z,17.63
2018-08-30T06:18:37.135Z,17.75
2018-08-30T06:21:08.489Z,17.84
2018-08-30T06:23:39.177Z,17.94
2018-08-30T06:26:10.142Z,17.98
2018-08-30T06:28:40.748Z,18.03
2018-08-30T06:31:11.866Z,18.04
2018-08-30T06:33:42.679Z,18.11
2018-08-30T06:36:13.875Z,18.26
2018-08-30T06:38:44.865Z,18.30
2018-08-30T06:41:16.029Z,18.48
2018-08-30T06:43:48.643Z,18.64
2018-08-30T06:46:18.725Z,18.76
2018-08-30T06:48:48.679Z,18.88
2018-08-30T06:51:19.790Z,19.03
2018-08-30T06:53:50.808Z,19.15
2018-08-30T06:56:21.875Z,19.23
2018-08-30T06:58:52.686Z,19.32
2018-08-30T07:01:23.635Z,19.47
2018-08-30T07:03:54.437Z,19.59
2018-08-30T07:06:26.025Z,19.74
2018-08-30T07:08:55.804Z,19.87
2018-08-30T07:11:26.806Z,19.99
2018-08-30T07:13:57.556Z,20.16
2018-08-30T07:16:29.077Z,20.25
2018-08-30T07:18:59.771Z,20.43
2018-08-30T07:21:31.098Z,20.48
2018-08-30T07:24:02.750Z,20.71
2018-08-30T07:26:32.748Z,20.71
2018-08-30T07:29:03.536Z,21.01
2018-08-30T07:31:35.349Z,21.14
2018-08-30T07:34:06.272Z,21.24
2018-08-30T07:36:37.365Z,21.34
2018-08-30T07:39:10.701Z,21.47
2018-08-30T07:41:41.043Z,21.58
2018-08-30T07:44:12.178Z,21.70
2018-08-30T07:46:43.168Z,21.90
2018-08-30T07:49:13.518Z,22.04
2018-08-30T07:51:43.795Z,22.14
2018-08-30T07:54:15.373Z,22.28
2018-08-30T07:56:45.446Z,22.41
2018-08-30T07:59:15.852Z,22.58
2018-08-30T08:01:46.869Z,22.74
2018-08-30T08:04:17.581Z,22.74
2018-08-30T08:06:49.097Z,22.58
2018-08-30T08:09:19.885Z,22.95
2018-08-30T08:11:51.234Z,22.98
2018-08-30T08:14:21.692Z,23.00
2018-08-30T08:16:52.719Z,23.06
2018-08-30T08:19:23.444Z,23.17
2018-08-30T08:21:55.325Z,23.29
2018-08-30T08:24:26.110Z,23.35
2018-08-30T08:26:57.102Z,23.34
2018-08-30T08:29:27.672Z,23.33
2018-08-30T08:31:59.203Z,23.53
2018-08-30T08:34:29.737Z,23.71
2018-08-30T08:37:00.769Z,23.85
2018-08-30T08:39:31.585Z,24.05
2018-08-30T08:42:03.100Z,24.23
2018-08-30T08:44:33.687Z,24.31
2018-08-30T08:47:04.972Z,24.47
2018-08-30T08:49:35.985Z,24.66
2018-08-30T08:52:07.237Z,24.45
2018-08-30T08:54:37.793Z,24.93
2018-08-30T08:57:09.087Z,25.04
2018-08-30T08:59:39.608Z,25.17
2018-08-30T09:02:10.763Z,25.26
2018-08-30T09:04:41.513Z,25.45
2018-08-30T09:07:14.324Z,25.64
2018-08-30T09:09:44.418Z,25.83
2018-08-30T09:12:15.126Z,26.00
2018-08-30T09:14:45.724Z,26.08
2018-08-30T09:17:16.828Z,26.27
2018-08-30T09:19:47.939Z,26.44
2018-08-30T09:22:19.147Z,26.56
2018-08-30T09:24:49.640Z,26.72
2018-08-30T09:27:20.903Z,26.70
2018-08-30T09:29:51.960Z,26.80
2018-08-30T09:32:23.295Z,26.89
2018-08-30T09:34:54.026Z,26.94
2018-08-30T09:37:25.001Z,26.93
2018-08-30T09:39:55.892Z,27.19
2018-08-30T09:42:26.956Z,27.28
2018-08-30T09:44:57.677Z,27.37
2018-08-30T09:47:28.665Z,27.67
2018-08-30T09:49:59.445Z,27.66
2018-08-30T09:52:30.873Z,27.79
2018-08-30T09:55:01.611Z,27.87
2018-08-30T09:57:33.033Z,27.94
2018-08-30T10:00:03.748Z,27.99
2018-08-30T10:02:36.544Z,28.19
2018-08-30T10:05:06.309Z,28.25
2018-08-30T10:07:36.813Z,28.31
2018-08-30T10:10:08.428Z,28.29
2018-08-30T10:12:39.122Z,28.41
2018-08-30T10:15:10.103Z,28.51
2018-08-30T10:17:40.661Z,28.77
2018-08-30T10:20:11.944Z,28.92
2018-08-30T10:22:42.807Z,28.95
2018-08-30T10:25:13.857Z,29.12
2018-08-30T10:27:44.898Z,29.19
2018-08-30T10:30:16.217Z,29.24
2018-08-30T10:32:46.711Z,29.41
2018-08-30T10:35:17.657Z,29.60
2018-08-30T10:37:48.448Z,29.77
2018-08-30T10:40:27.442Z,29.96
2018-08-30T10:42:57.426Z,30.12
2018-08-30T10:45:27.878Z,30.34
2018-08-30T10:47:57.592Z,30.46
2018-08-30T10:50:27.683Z,30.39
2018-08-30T10:52:57.472Z,30.47
2018-08-30T10:55:27.569Z,30.40
2018-08-30T10:57:57.684Z,30.37
2018-08-30T11:00:27.966Z,30.44
2018-08-30T11:02:59.068Z,30.43
2018-08-30T11:05:29.880Z,30.56
2018-08-30T11:08:00.817Z,30.47
2018-08-30T11:10:31.784Z,30.51
2018-08-30T11:13:02.934Z,30.79
2018-08-30T11:15:33.666Z,31.00
2018-08-30T11:18:04.829Z,31.10
2018-08-30T11:20:35.620Z,31.23
2018-08-30T11:23:06.972Z,31.35
2018-08-30T11:25:37.911Z,31.44
2018-08-30T11:28:08.856Z,31.64
2018-08-30T11:30:39.572Z,31.84
2018-08-30T11:33:10.601Z,31.96
2018-08-30T11:35:41.506Z,31.78
2018-08-30T11:38:13.072Z,31.62
2018-08-30T11:40:44.089Z,31.74
2018-08-30T11:43:16.419Z,31.72
2018-08-30T11:45:46.645Z,31.75
2018-08-30T11:48:16.576Z,31.87
2018-08-30T11:50:47.444Z,31.84
2018-08-30T11:53:18.758Z,31.66
2018-08-30T11:55:49.761Z,31.59
2018-08-30T11:58:20.730Z,31.33
2018-08-30T12:00:51.794Z,31.14
2018-08-30T12:03:23.578Z,31.00
2018-08-30T12:05:54.835Z,30.93
2018-08-30T12:08:25.073Z,30.88
2018-08-30T12:10:56.506Z,30.77
2018-08-30T12:13:26.696Z,30.82
2018-08-30T12:15:57.679Z,30.91
2018-08-30T12:18:28.609Z,30.87
2018-08-30T12:20:59.760Z,30.80
2018-08-30T12:23:30.650Z,30.74
2018-08-30T12:26:01.725Z,30.64
2018-08-30T12:28:32.650Z,30.47
2018-08-30T12:31:03.836Z,30.45
2018-08-30T12:33:34.985Z,30.50
2018-08-30T12:36:06.163Z,30.46
2018-08-30T12:38:36.666Z,30.09
2018-08-30T12:41:08.119Z,30.44
2018-08-30T12:43:39.064Z,30.47
2018-08-30T12:46:10.035Z,30.50
2018-08-30T12:48:41.112Z,30.41
2018-08-30T12:51:12.273Z,30.17
2018-08-30T12:53:42.859Z,30.14
2018-08-30T12:56:14.195Z,30.01
2018-08-30T12:58:45.253Z,29.75
2018-08-30T13:01:16.078Z,28.97
2018-08-30T13:03:46.869Z,28.35
2018-08-30T13:06:17.999Z,28.14
2018-08-30T13:08:49.016Z,27.30
2018-08-30T13:11:21.103Z,26.89
2018-08-30T13:13:51.127Z,26.53
2018-08-30T13:16:25.970Z,26.26
2018-08-30T13:18:56.149Z,26.35
2018-08-30T13:21:26.236Z,26.39
2018-08-30T13:23:56.908Z,26.41
2018-08-30T13:26:26.923Z,26.42
2018-08-30T13:28:57.401Z,26.64
2018-08-30T13:31:27.395Z,26.61
2018-08-30T13:33:58.529Z,26.47
2018-08-30T13:36:29.139Z,26.14
2018-08-30T13:39:00.706Z,25.97
2018-08-30T13:41:31.329Z,25.70
2018-08-30T13:44:02.244Z,25.32
2018-08-30T13:46:33.070Z,25.25
2018-08-30T13:49:04.681Z,24.91
2018-08-30T13:51:35.529Z,24.88
2018-08-30T13:54:06.420Z,24.75
2018-08-30T13:56:37.274Z,24.80
2018-08-30T13:59:08.658Z,24.92
2018-08-30T14:01:39.479Z,24.98
2018-08-30T14:04:10.386Z,24.97
2018-08-30T14:06:41.249Z,24.63
2018-08-30T14:09:12.448Z,24.60
2018-08-30T14:11:43.368Z,24.62
2018-08-30T14:14:14.389Z,24.62
2018-08-30T14:16:44.810Z,24.46
2018-08-30T14:19:16.096Z,24.54
2018-08-30T14:21:46.723Z,24.58
2018-08-30T14:24:16.790Z,24.57
2018-08-30T14:26:47.970Z,24.54
2018-08-30T14:29:19.457Z,24.67
2018-08-30T14:31:50.163Z,24.71
2018-08-30T14:34:21.329Z,24.65
2018-08-30T14:36:51.900Z,24.64
2018-08-30T14:39:23.014Z,24.56
2018-08-30T14:41:53.948Z,24.53
2018-08-30T14:44:25.317Z,24.52
2018-08-30T14:46:57.916Z,24.51
2018-08-30T14:49:28.240Z,24.44
2018-08-30T14:51:58.176Z,24.34
2018-08-30T14:54:29.158Z,24.32
2018-08-30T14:56:59.802Z,24.22
2018-08-30T14:59:31.126Z,23.68
2018-08-30T15:02:01.779Z,23.52
2018-08-30T15:04:32.820Z,23.20
2018-08-30T15:07:03.578Z,23.19
2018-08-30T15:09:35.216Z,22.80
2018-08-30T15:12:05.976Z,22.92
2018-08-30T15:14:36.789Z,22.99
2018-08-30T15:17:07.658Z,22.84
2018-08-30T15:19:38.913Z,22.71
2018-08-30T15:22:12.002Z,22.30
2018-08-30T15:24:42.816Z,22.37
2018-08-30T15:27:12.921Z,22.41
2018-08-30T15:29:44.898Z,22.34
2018-08-30T15:32:14.835Z,22.27
2018-08-30T15:34:44.680Z,22.11
2018-08-30T15:37:14.701Z,22.02
2018-08-30T15:39:45.484Z,21.81
2018-08-30T15:42:17.095Z,21.89
2018-08-30T15:44:47.692Z,21.72
2018-08-30T15:47:19.005Z,21.49
2018-08-30T15:49:52.113Z,21.51
2018-08-30T15:52:22.652Z,21.34
2018-08-30T15:54:52.376Z,21.19
2018-08-30T15:57:24.109Z,21.13
2018-08-30T15:59:54.105Z,21.09
2018-08-30T16:02:25.195Z,21.00
2018-08-30T16:04:55.766Z,20.88
2018-08-30T16:07:26.993Z,20.96
2018-08-30T16:09:57.848Z,20.83
2018-08-30T16:12:28.964Z,20.76
2018-08-30T16:14:59.767Z,20.64
2018-08-30T16:17:30.840Z,20.68
2018-08-30T16:20:01.631Z,20.49
2018-08-30T16:22:49.882Z,20.44
2018-08-30T16:25:20.144Z,20.59
2018-08-30T16:27:49.978Z,20.57
2018-08-30T16:30:20.828Z,20.56
2018-08-30T16:32:50.916Z,20.67
2018-08-30T16:35:21.362Z,20.46
2018-08-30T16:37:51.276Z,20.49
2018-08-30T16:40:21.929Z,20.50
2018-08-30T16:42:51.925Z,20.39
2018-08-30T16:45:21.961Z,20.39
2018-08-30T16:47:52.689Z,20.33
2018-08-30T16:50:22.462Z,20.28
2018-08-30T16:52:52.546Z,20.38
2018-08-30T16:55:24.376Z,20.32
2018-08-30T16:57:54.336Z,20.38
2018-08-30T17:00:25.100Z,20.40
2018-08-30T17:02:54.946Z,20.40
2018-08-30T17:05:25.902Z,20.46
2018-08-30T17:07:55.725Z,20.53
2018-08-30T17:10:25.970Z,20.57
2018-08-30T17:12:55.774Z,20.60
2018-08-30T17:15:25.718Z,20.59
2018-08-30T17:17:56.001Z,20.66
2018-08-30T17:20:29.793Z,20.82
2018-08-30T17:22:59.777Z,20.87
2018-08-30T17:25:29.812Z,20.85
2018-08-30T17:28:00.444Z,20.79
2018-08-30T17:30:30.332Z,20.80
2018-08-30T17:33:00.956Z,20.71
2018-08-30T17:35:32.006Z,20.68
2018-08-30T17:38:03.281Z,20.73
2018-08-30T17:40:34.116Z,20.75
2018-08-30T17:43:04.828Z,20.68
2018-08-30T17:45:36.282Z,20.69
2018-08-30T17:48:07.233Z,20.62
2018-08-30T17:50:37.470Z,20.64
2018-08-30T17:53:07.732Z,20.64
2018-08-30T17:55:39.552Z,20.64
2018-08-30T17:58:10.029Z,20.63
2018-08-30T18:00:41.449Z,20.56
2018-08-30T18:03:13.290Z,20.49
2018-08-30T18:05:43.733Z,20.36
2018-08-30T18:08:13.751Z,20.32
2018-08-30T18:10:45.267Z,20.19
2018-08-30T18:13:15.949Z,20.20
2018-08-30T18:15:47.085Z,20.03
2018-08-30T18:18:18.009Z,20.17
2018-08-30T18:20:49.071Z,20.18
2018-08-30T18:23:20.174Z,20.15
2018-08-30T18:25:51.229Z,20.14
2018-08-30T18:28:21.822Z,20.11
2018-08-30T18:30:52.981Z,19.91
2018-08-30T18:33:23.881Z,20.07
2018-08-30T18:35:55.271Z,20.02
2018-08-30T18:38:27.462Z,19.90
2018-08-30T18:40:57.682Z,19.87
2018-08-30T18:43:27.979Z,19.86
2018-08-30T18:46:00.368Z,19.78
2018-08-30T18:48:30.742Z,19.81
2018-08-30T18:51:00.818Z,19.66
2018-08-30T18:53:32.781Z,19.76
2018-08-30T18:56:03.004Z,19.80
2018-08-30T18:58:33.945Z,19.82
2018-08-30T19:01:05.227Z,19.75
2018-08-30T19:03:35.951Z,19.09
2018-08-30T19:06:07.060Z,19.76
2018-08-30T19:08:37.962Z,19.76
2018-08-30T19:11:09.370Z,19.74
2018-08-30T19:13:40.115Z,19.58
2018-08-30T19:16:16.143Z,19.58
2018-08-30T19:18:51.171Z,19.59
2018-08-30T19:21:21.405Z,19.52
2018-08-30T19:23:51.474Z,19.50
2018-08-30T19:26:21.645Z,19.54
2018-08-30T19:28:52.182Z,19.49
2018-08-30T19:31:22.115Z,19.55
2018-08-30T19:33:53.071Z,19.55
2018-08-30T19:36:33.395Z,19.58
2018-08-30T19:39:05.448Z,19.61
2018-08-30T19:41:35.638Z,19.60
2018-08-30T19:44:05.930Z,19.58
2018-08-30T19:46:36.400Z,19.54
2018-08-30T19:49:07.026Z,19.58
2018-08-30T19:51:37.508Z,19.56
2018-08-30T19:54:07.693Z,19.44
2018-08-30T19:56:37.825Z,19.48
2018-08-30T19:59:07.963Z,19.50
2018-08-30T20:01:37.794Z,19.43
2018-08-30T20:04:07.794Z,19.51
2018-08-30T20:06:37.901Z,19.39
2018-08-30T20:09:08.201Z,19.40
2018-08-30T20:11:38.603Z,19.35
2018-08-30T20:14:08.465Z,19.34
2018-08-30T20:16:38.426Z,19.37
2018-08-30T20:19:08.504Z,19.29
2018-08-30T20:21:38.362Z,19.32
2018-08-30T20:24:08.962Z,19.19
2018-08-30T20:26:38.872Z,19.12
2018-08-30T20:29:08.945Z,19.07
2018-08-30T20:31:40.843Z,18.97
2018-08-30T20:34:11.705Z,19.02
2018-08-30T20:36:41.741Z,19.02
2018-08-30T20:39:11.740Z,19.02
2018-08-30T20:41:43.299Z,18.98
2018-08-30T20:44:14.189Z,18.97
2018-08-30T20:46:45.519Z,18.90
2018-08-30T20:49:15.675Z,18.89
2018-08-30T20:51:46.951Z,18.85
2018-08-30T20:54:17.746Z,18.88
2018-08-30T20:56:49.142Z,18.91
2018-08-30T20:59:23.032Z,18.95
2018-08-30T21:01:53.127Z,18.97
2018-08-30T21:04:23.606Z,18.95
2018-08-30T21:06:53.656Z,18.94
2018-08-30T21:09:23.731Z,18.90
2018-08-30T21:11:54.960Z,18.89
2018-08-30T21:14:25.996Z,18.88
2018-08-30T21:16:57.101Z,18.83
2018-08-30T21:19:28.179Z,18.85
2018-08-30T21:21:59.328Z,18.86
2018-08-30T21:24:30.044Z,18.85
2018-08-30T21:27:01.061Z,18.77
2018-08-30T21:29:31.722Z,18.59
2018-08-30T21:32:03.420Z,18.72
2018-08-30T21:34:34.059Z,18.69
2018-08-30T21:37:05.118Z,18.71
2018-08-30T21:39:35.726Z,18.63
2018-08-30T21:42:06.846Z,18.66
2018-08-30T21:44:37.673Z,18.58
2018-08-30T21:47:09.137Z,18.57
2018-08-30T21:49:39.878Z,18.58
2018-08-30T21:52:11.104Z,18.55
2018-08-30T21:54:41.805Z,17.35
2018-08-30T21:57:13.117Z,18.52
2018-08-30T21:59:43.812Z,18.55
2018-08-30T22:02:15.865Z,18.49
2018-08-30T22:04:45.691Z,18.49
2018-08-30T22:07:16.781Z,18.48
2018-08-30T22:09:47.958Z,18.42
2018-08-30T22:12:19.017Z,18.42
2018-08-30T22:14:49.721Z,18.39
2018-08-30T22:17:20.715Z,18.48
2018-08-30T22:19:51.519Z,18.55
2018-08-30T22:22:22.999Z,18.49
2018-08-30T22:24:53.711Z,18.39
2018-08-30T22:27:24.710Z,18.47
2018-08-30T22:29:55.573Z,18.47
2018-08-30T22:32:26.990Z,18.50
2018-08-30T22:34:57.763Z,18.52
2018-08-30T22:37:28.795Z,18.47
2018-08-30T22:39:59.890Z,18.42
2018-08-30T22:42:30.958Z,18.39
2018-08-30T22:45:02.213Z,18.38
2018-08-30T22:47:33.243Z,18.31
2018-08-30T22:50:04.069Z,18.31
2018-08-30T22:52:35.132Z,18.23
2018-08-30T22:55:05.812Z,18.28
2018-08-30T22:57:36.985Z,18.30
2018-08-30T23:00:07.768Z,18.38
2018-08-30T23:02:38.737Z,18.35
2018-08-30T23:05:09.546Z,18.30
2018-08-30T23:07:40.840Z,18.27
2018-08-30T23:10:11.721Z,18.26
2018-08-30T23:12:42.558Z,18.29
2018-08-30T23:15:13.887Z,18.28
2018-08-30T23:17:44.688Z,18.29
2018-08-30T23:20:15.565Z,18.24
2018-08-30T23:22:46.550Z,18.21
2018-08-30T23:25:16.496Z,18.19
2018-08-30T23:27:47.828Z,18.14
2018-08-30T23:30:18.879Z,18.01
2018-08-30T23:32:50.788Z,17.96
2018-08-30T23:35:20.761Z,17.97
2018-08-30T23:37:56.129Z,17.96
2018-08-30T23:40:26.709Z,18.02
2018-08-30T23:42:56.591Z,18.01
2018-08-30T23:45:27.454Z,18.01
2018-08-30T23:47:57.360Z,17.97
2018-08-30T23:50:27.241Z,18.00
2018-08-30T23:52:57.923Z,17.98
2018-08-30T23:55:28.817Z,17.95
2018-08-30T23:58:10.334Z,17.90
